createdAt,value
2022-10-19T00:01:52.168Z,8.92
2022-10-19T00:04:21.439Z,8.91
2022-10-19T00:06:50.331Z,8.85
2022-10-19T00:09:21.318Z,8.86
2022-10-19T00:11:52.209Z,8.79
2022-10-19T00:14:26.313Z,8.76
2022-10-19T00:16:58.188Z,8.75
2022-10-19T00:19:29.555Z,8.74
2022-10-19T00:21:58.159Z,8.69
2022-10-19T00:24:27.285Z,8.63
2022-10-19T00:26:55.913Z,8.58
2022-10-19T00:29:26.107Z,8.55
2022-10-19T00:31:57.143Z,8.36
2022-10-19T00:34:26.254Z,8.41
2022-10-19T00:36:57.264Z,8.41
2022-10-19T00:39:25.926Z,8.39
2022-10-19T00:41:54.943Z,8.40
2022-10-19T00:45:12.572Z,8.40
2022-10-19T00:47:44.714Z,8.42
2022-10-19T00:50:17.361Z,8.17
2022-10-19T00:52:46.497Z,8.34
2022-10-19T00:55:15.324Z,8.36
2022-10-19T00:57:46.655Z,8.32
2022-10-19T01:00:15.807Z,8.36
2022-10-19T01:02:45.856Z,8.37
2022-10-19T01:05:15.597Z,8.19
2022-10-19T01:07:46.649Z,8.33
2022-10-19T01:10:25.478Z,8.24
2022-10-19T01:13:08.042Z,8.02
2022-10-19T01:15:45.915Z,8.16
2022-10-19T01:18:23.404Z,8.20
2022-10-19T01:21:17.438Z,8.24
2022-10-19T01:24:45.562Z,8.25
2022-10-19T01:27:42.769Z,8.13
2022-10-19T01:30:18.783Z,8.13
2022-10-19T01:32:59.911Z,8.03
2022-10-19T01:35:37.374Z,8.00
2022-10-19T01:38:21.573Z,8.05
2022-10-19T01:40:58.612Z,8.10
2022-10-19T01:43:37.565Z,8.04
2022-10-19T01:46:14.579Z,8.04
2022-10-19T01:48:50.477Z,8.14
2022-10-19T01:51:24.455Z,8.11
2022-10-19T01:53:58.110Z,8.03
2022-10-19T01:56:29.425Z,8.02
2022-10-19T01:59:02.349Z,7.83
2022-10-19T02:01:36.590Z,7.86
2022-10-19T02:04:06.352Z,7.83
2022-10-19T02:06:36.666Z,7.75
2022-10-19T02:09:17.910Z,7.74
2022-10-19T02:11:53.418Z,7.62
2022-10-19T02:14:30.601Z,6.96
2022-10-19T02:17:06.231Z,7.65
2022-10-19T02:19:37.298Z,7.58
2022-10-19T02:22:06.277Z,7.50
2022-10-19T02:24:35.231Z,7.52
2022-10-19T02:27:06.581Z,7.47
2022-10-19T02:29:37.308Z,7.18
2022-10-19T02:32:08.221Z,7.24
2022-10-19T02:34:38.512Z,7.37
2022-10-19T02:37:08.037Z,7.35
2022-10-19T02:39:39.598Z,7.23
2022-10-19T02:42:13.053Z,7.29
2022-10-19T02:44:48.735Z,7.27
2022-10-19T02:47:20.068Z,7.14
2022-10-19T02:49:50.338Z,7.18
2022-10-19T02:52:21.199Z,7.17
2022-10-19T02:54:52.388Z,7.17
2022-10-19T02:57:23.487Z,7.10
2022-10-19T02:59:52.807Z,7.16
2022-10-19T03:02:23.211Z,7.17
2022-10-19T03:04:51.990Z,7.15
2022-10-19T03:07:22.629Z,6.94
2022-10-19T03:09:51.520Z,7.12
2022-10-19T03:12:22.252Z,7.10
2022-10-19T03:14:53.492Z,7.12
2022-10-19T03:17:26.673Z,7.12
2022-10-19T03:19:55.589Z,7.13
2022-10-19T03:22:24.307Z,7.06
2022-10-19T03:24:57.525Z,7.05
2022-10-19T03:27:27.015Z,7.01
2022-10-19T03:29:58.152Z,7.00
2022-10-19T03:32:30.437Z,7.00
2022-10-19T03:34:59.083Z,6.91
2022-10-19T03:37:30.211Z,7.00
2022-10-19T03:40:01.068Z,6.97
2022-10-19T03:42:32.561Z,6.96
2022-10-19T03:45:04.103Z,6.99
2022-10-19T03:47:34.329Z,6.98
2022-10-19T03:50:05.736Z,6.98
2022-10-19T03:52:34.412Z,6.97
2022-10-19T03:55:05.988Z,6.96
2022-10-19T03:57:34.962Z,6.98
2022-10-19T04:00:04.679Z,6.96
2022-10-19T04:02:41.849Z,6.97
2022-10-19T04:05:10.831Z,6.95
2022-10-19T04:07:39.600Z,6.29
2022-10-19T04:10:09.090Z,6.92
2022-10-19T04:12:40.729Z,6.90
2022-10-19T04:15:10.478Z,6.85
2022-10-19T04:17:39.610Z,6.85
2022-10-19T04:20:11.558Z,6.88
2022-10-19T04:22:40.252Z,6.90
2022-10-19T04:25:12.439Z,6.85
2022-10-19T04:27:41.521Z,6.84
2022-10-19T04:30:10.954Z,6.84
2022-10-19T04:32:39.822Z,6.85
2022-10-19T04:35:10.888Z,6.86
2022-10-19T04:37:40.081Z,6.90
2022-10-19T04:40:15.017Z,6.82
2022-10-19T04:42:44.076Z,6.80
2022-10-19T04:45:13.884Z,6.78
2022-10-19T04:47:46.908Z,6.72
2022-10-19T04:50:17.481Z,6.85
2022-10-19T04:52:46.592Z,6.84
2022-10-19T04:55:15.976Z,6.83
2022-10-19T04:57:44.857Z,6.63
2022-10-19T05:00:15.058Z,6.69
2022-10-19T05:02:44.935Z,6.72
2022-10-19T05:05:13.987Z,6.70
2022-10-19T05:07:46.510Z,6.68
2022-10-19T05:10:19.750Z,6.66
2022-10-19T05:12:48.440Z,6.66
2022-10-19T05:15:17.097Z,6.64
2022-10-19T05:17:46.183Z,6.62
2022-10-19T05:20:17.082Z,6.61
2022-10-19T05:22:47.457Z,6.58
2022-10-19T05:25:18.769Z,6.53
2022-10-19T05:27:52.706Z,6.44
2022-10-19T05:30:21.861Z,6.56
2022-10-19T05:32:50.510Z,6.46
2022-10-19T05:35:22.348Z,6.54
2022-10-19T05:37:56.521Z,6.55
2022-10-19T05:40:25.173Z,6.52
2022-10-19T05:42:56.065Z,6.53
2022-10-19T05:45:27.433Z,6.49
2022-10-19T05:48:00.168Z,6.51
2022-10-19T05:50:28.846Z,6.49
2022-10-19T05:52:59.425Z,6.48
2022-10-19T05:55:28.580Z,6.47
2022-10-19T05:57:57.729Z,6.45
2022-10-19T06:00:29.036Z,6.37
2022-10-19T06:02:59.182Z,6.41
2022-10-19T06:05:28.071Z,6.43
2022-10-19T06:07:56.642Z,6.43
2022-10-19T06:10:26.785Z,6.37
2022-10-19T06:12:58.110Z,6.37
2022-10-19T06:15:26.982Z,6.40
2022-10-19T06:17:55.630Z,6.40
2022-10-19T06:20:24.340Z,6.25
2022-10-19T06:22:52.972Z,6.05
2022-10-19T06:25:21.679Z,6.36
2022-10-19T06:27:51.744Z,6.40
2022-10-19T06:30:20.469Z,6.14
2022-10-19T06:32:52.331Z,6.33
2022-10-19T06:35:23.436Z,6.39
2022-10-19T06:37:52.166Z,6.39
2022-10-19T06:40:20.813Z,6.38
2022-10-19T06:42:49.471Z,6.38
2022-10-19T06:45:19.559Z,6.37
2022-10-19T06:47:48.551Z,6.46
2022-10-19T06:50:17.926Z,6.48
2022-10-19T06:52:46.846Z,6.55
2022-10-19T06:55:17.900Z,6.64
2022-10-19T06:57:46.810Z,6.69
2022-10-19T07:00:19.236Z,6.68
2022-10-19T07:02:47.969Z,6.70
2022-10-19T07:05:17.281Z,6.84
2022-10-19T07:07:46.162Z,6.77
2022-10-19T07:10:14.808Z,6.84
2022-10-19T07:12:43.612Z,6.84
2022-10-19T07:15:12.337Z,6.70
2022-10-19T07:17:42.811Z,7.02
2022-10-19T07:20:13.707Z,6.99
2022-10-19T07:22:45.062Z,6.97
2022-10-19T07:25:14.202Z,7.00
2022-10-19T07:27:43.725Z,7.12
2022-10-19T07:30:12.841Z,7.08
2022-10-19T07:32:46.775Z,7.15
2022-10-19T07:35:16.767Z,7.04
2022-10-19T07:37:45.530Z,7.19
2022-10-19T07:40:16.996Z,7.21
2022-10-19T07:42:48.038Z,7.25
2022-10-19T07:45:19.561Z,7.37
2022-10-19T07:47:49.674Z,7.40
2022-10-19T07:50:18.707Z,7.12
2022-10-19T07:52:50.996Z,7.45
2022-10-19T07:55:21.822Z,7.57
2022-10-19T07:57:53.258Z,7.59
2022-10-19T08:00:25.377Z,7.66
2022-10-19T08:03:31.080Z,7.67
2022-10-19T08:05:47.588Z,7.69
2022-10-19T08:08:16.512Z,7.70
2022-10-19T08:10:47.920Z,7.90
2022-10-19T08:13:17.119Z,7.90
2022-10-19T08:15:45.824Z,8.23
2022-10-19T08:18:16.862Z,8.05
2022-10-19T08:20:45.958Z,8.10
2022-10-19T08:23:15.028Z,8.19
2022-10-19T08:25:44.063Z,8.20
2022-10-19T08:28:15.558Z,8.22
2022-10-19T08:30:46.457Z,8.44
2022-10-19T08:33:19.284Z,8.37
2022-10-19T08:35:50.961Z,8.36
2022-10-19T08:38:19.929Z,8.69
2022-10-19T08:40:49.026Z,8.78
2022-10-19T08:43:22.866Z,8.75
2022-10-19T08:45:59.376Z,8.90
2022-10-19T08:48:32.972Z,9.04
2022-10-19T08:51:04.397Z,8.96
2022-10-19T08:53:41.477Z,9.29
2022-10-19T08:57:01.086Z,9.56
2022-10-19T08:59:31.647Z,9.54
2022-10-19T09:02:11.862Z,9.61
2022-10-19T09:04:46.126Z,9.79
2022-10-19T09:07:25.761Z,10.02
2022-10-19T09:09:58.324Z,10.09
2022-10-19T09:12:36.405Z,10.22
2022-10-19T09:15:08.443Z,10.52
2022-10-19T09:17:39.471Z,10.71
2022-10-19T09:20:19.147Z,10.81
2022-10-19T09:23:01.657Z,10.90
2022-10-19T09:25:32.032Z,11.27
2022-10-19T09:28:31.406Z,11.27
2022-10-19T09:31:14.506Z,11.31
2022-10-19T09:33:52.141Z,11.51
2022-10-19T09:36:39.294Z,11.65
2022-10-19T09:39:14.220Z,11.91
2022-10-19T09:41:48.214Z,11.89
2022-10-19T09:44:19.997Z,11.90
2022-10-19T09:46:56.579Z,11.53
2022-10-19T09:49:41.906Z,12.49
2022-10-19T09:52:39.337Z,12.56
2022-10-19T09:55:22.814Z,12.51
2022-10-19T09:57:59.483Z,12.28
2022-10-19T10:00:34.758Z,12.56
2022-10-19T10:03:03.423Z,12.57
2022-10-19T10:05:34.952Z,12.47
2022-10-19T10:08:17.935Z,12.50
2022-10-19T10:10:49.179Z,12.63
2022-10-19T10:13:20.156Z,12.83
2022-10-19T10:15:52.576Z,12.89
2022-10-19T10:18:21.491Z,13.02
2022-10-19T10:21:04.917Z,13.28
2022-10-19T10:23:37.855Z,13.27
2022-10-19T10:26:18.406Z,13.57
2022-10-19T10:28:51.960Z,13.55
2022-10-19T10:31:24.674Z,13.49
2022-10-19T10:33:56.866Z,13.58
2022-10-19T10:36:30.119Z,13.53
2022-10-19T10:39:06.214Z,13.61
2022-10-19T10:41:40.540Z,13.73
2022-10-19T10:44:18.929Z,13.78
2022-10-19T10:46:56.776Z,13.87
2022-10-19T10:49:31.121Z,14.09
2022-10-19T10:52:05.582Z,14.02
2022-10-19T10:54:35.722Z,14.23
2022-10-19T10:57:13.163Z,14.14
2022-10-19T10:59:50.468Z,14.19
2022-10-19T11:02:29.352Z,14.31
2022-10-19T11:05:03.198Z,14.23
2022-10-19T11:07:36.072Z,14.41
2022-10-19T11:10:21.164Z,14.37
2022-10-19T11:12:57.272Z,14.42
2022-10-19T11:15:34.680Z,14.71
2022-10-19T11:18:15.755Z,13.76
2022-10-19T11:20:52.664Z,14.64
2022-10-19T11:23:33.865Z,14.66
2022-10-19T11:26:17.466Z,14.55
2022-10-19T11:29:00.818Z,14.70
2022-10-19T11:31:41.181Z,14.81
2022-10-19T11:34:27.253Z,14.85
2022-10-19T11:37:03.796Z,14.63
2022-10-19T11:39:47.925Z,14.47
2022-10-19T11:42:31.637Z,14.55
2022-10-19T11:45:07.077Z,14.91
2022-10-19T11:47:53.905Z,14.98
2022-10-19T11:50:33.958Z,14.83
2022-10-19T11:53:13.569Z,14.67
2022-10-19T11:56:14.648Z,15.05
2022-10-19T11:58:56.433Z,15.12
2022-10-19T12:01:38.771Z,14.90
2022-10-19T12:04:29.683Z,15.32
2022-10-19T12:07:07.058Z,15.67
2022-10-19T12:09:47.484Z,15.75
2022-10-19T12:12:26.563Z,15.52
2022-10-19T12:15:06.501Z,15.56
2022-10-19T12:17:38.800Z,15.20
2022-10-19T12:20:19.013Z,15.53
2022-10-19T12:22:50.618Z,15.67
2022-10-19T12:25:21.984Z,15.75
2022-10-19T12:27:51.710Z,15.48
2022-10-19T12:30:24.040Z,15.52
2022-10-19T12:33:07.660Z,15.48
2022-10-19T12:35:53.557Z,15.25
2022-10-19T12:38:30.630Z,15.45
2022-10-19T12:41:06.674Z,15.73
2022-10-19T12:43:46.077Z,15.62
2022-10-19T12:46:28.824Z,15.56
2022-10-19T12:49:35.056Z,15.41
2022-10-19T12:52:04.748Z,15.54
2022-10-19T12:54:35.821Z,15.58
2022-10-19T12:57:23.096Z,15.47
2022-10-19T13:00:01.847Z,15.44
2022-10-19T13:02:34.973Z,15.45
2022-10-19T13:05:04.463Z,15.59
2022-10-19T13:07:36.293Z,15.79
2022-10-19T13:10:09.806Z,15.69
2022-10-19T13:12:47.393Z,15.75
2022-10-19T13:15:51.153Z,15.81
2022-10-19T13:19:08.352Z,15.59
2022-10-19T13:22:05.698Z,15.09
2022-10-19T13:24:38.557Z,15.51
2022-10-19T13:27:28.120Z,15.49
2022-10-19T13:29:57.407Z,15.50
2022-10-19T13:32:44.492Z,15.29
2022-10-19T13:35:32.693Z,15.49
2022-10-19T13:38:28.128Z,15.33
2022-10-19T13:41:14.240Z,15.70
2022-10-19T13:43:54.604Z,15.76
2022-10-19T13:46:35.610Z,15.52
2022-10-19T13:49:33.039Z,15.45
2022-10-19T13:52:24.323Z,15.42
2022-10-19T13:55:18.914Z,15.61
2022-10-19T13:58:04.975Z,15.95
2022-10-19T14:00:46.102Z,16.13
2022-10-19T14:03:36.827Z,15.84
2022-10-19T14:06:16.782Z,15.74
2022-10-19T14:09:06.207Z,15.57
2022-10-19T14:11:40.454Z,15.35
2022-10-19T14:14:21.044Z,15.33
2022-10-19T14:16:57.076Z,15.35
2022-10-19T14:19:30.455Z,15.54
2022-10-19T14:22:02.446Z,15.36
2022-10-19T14:24:33.716Z,15.33
2022-10-19T14:27:07.748Z,15.42
2022-10-19T14:29:46.123Z,15.44
2022-10-19T14:32:15.323Z,15.48
2022-10-19T14:34:45.147Z,15.40
2022-10-19T14:37:18.312Z,15.79
2022-10-19T14:40:00.242Z,15.78
2022-10-19T14:42:39.710Z,15.85
2022-10-19T14:45:15.285Z,15.68
2022-10-19T14:47:59.403Z,15.44
2022-10-19T14:50:35.256Z,14.95
2022-10-19T14:53:19.078Z,15.24
2022-10-19T14:55:49.783Z,15.04
2022-10-19T14:58:24.877Z,14.83
2022-10-19T15:00:54.953Z,14.52
2022-10-19T15:03:27.133Z,14.42
2022-10-19T15:06:02.812Z,14.47
2022-10-19T15:08:40.169Z,14.38
2022-10-19T15:11:21.732Z,14.36
2022-10-19T15:14:01.396Z,14.39
2022-10-19T15:16:33.116Z,14.28
2022-10-19T15:19:06.521Z,14.51
2022-10-19T15:21:37.705Z,14.26
2022-10-19T15:24:22.699Z,14.18
2022-10-19T15:27:01.751Z,14.06
2022-10-19T15:29:38.962Z,14.09
2022-10-19T15:32:15.678Z,14.06
2022-10-19T15:34:47.410Z,13.89
2022-10-19T15:37:21.186Z,13.81
2022-10-19T15:39:51.117Z,13.78
2022-10-19T15:42:24.563Z,13.76
2022-10-19T15:44:57.105Z,13.68
2022-10-19T15:47:27.059Z,13.74
2022-10-19T15:50:01.613Z,13.58
2022-10-19T15:52:33.199Z,13.59
2022-10-19T15:55:02.794Z,13.47
2022-10-19T15:57:34.350Z,13.50
2022-10-19T16:00:14.960Z,13.38
2022-10-19T16:02:44.205Z,13.21
2022-10-19T16:05:15.282Z,13.22
2022-10-19T16:07:43.929Z,13.15
2022-10-19T16:10:20.198Z,12.99
2022-10-19T16:12:48.846Z,12.93
2022-10-19T16:15:23.184Z,12.93
2022-10-19T16:17:55.934Z,12.84
2022-10-19T16:20:25.819Z,12.86
2022-10-19T16:22:57.306Z,12.75
2022-10-19T16:25:28.862Z,12.69
2022-10-19T16:27:57.992Z,12.65
2022-10-19T16:30:27.943Z,12.51
2022-10-19T16:32:56.587Z,12.63
2022-10-19T16:35:29.561Z,12.53
2022-10-19T16:37:59.048Z,12.38
2022-10-19T16:40:28.554Z,12.51
2022-10-19T16:42:58.837Z,12.34
2022-10-19T16:45:29.820Z,12.37
2022-10-19T16:48:01.133Z,12.31
2022-10-19T16:50:33.190Z,12.32
2022-10-19T16:53:06.750Z,12.27
2022-10-19T16:55:35.455Z,12.22
2022-10-19T16:58:04.394Z,12.25
2022-10-19T17:00:36.519Z,12.14
2022-10-19T17:03:07.633Z,12.09
2022-10-19T17:05:38.908Z,11.90
2022-10-19T17:08:09.238Z,11.97
2022-10-19T17:10:37.961Z,12.01
2022-10-19T17:13:09.044Z,11.87
2022-10-19T17:15:43.488Z,11.83
2022-10-19T17:18:12.327Z,11.94
2022-10-19T17:20:43.823Z,11.81
2022-10-19T17:23:12.710Z,11.80
2022-10-19T17:25:48.097Z,11.74
2022-10-19T17:28:16.771Z,11.74
2022-10-19T17:30:47.696Z,11.63
2022-10-19T17:33:16.388Z,11.55
2022-10-19T17:35:47.787Z,11.51
2022-10-19T17:38:16.797Z,11.45
2022-10-19T17:40:45.902Z,11.46
2022-10-19T17:43:14.787Z,11.43
2022-10-19T17:48:19.112Z,11.45
2022-10-19T17:50:57.667Z,11.44
2022-10-19T17:53:26.603Z,11.47
2022-10-19T17:55:55.703Z,11.35
2022-10-19T17:58:25.007Z,11.35
2022-10-19T18:00:55.335Z,11.36
2022-10-19T18:03:27.191Z,11.27
2022-10-19T18:06:01.231Z,11.36
2022-10-19T18:08:31.447Z,11.32
2022-10-19T18:11:04.561Z,11.23
2022-10-19T18:13:34.493Z,11.18
2022-10-19T18:16:03.992Z,11.36
2022-10-19T18:18:36.297Z,11.43
2022-10-19T18:21:06.262Z,11.13
2022-10-19T18:23:35.923Z,11.04
2022-10-19T18:26:06.193Z,10.89
2022-10-19T18:28:37.467Z,10.94
2022-10-19T18:31:07.724Z,11.00
2022-10-19T18:33:38.500Z,10.85
2022-10-19T18:36:09.678Z,11.02
2022-10-19T18:38:39.096Z,10.72
2022-10-19T18:41:11.662Z,11.09
2022-10-19T18:43:40.547Z,10.92
2022-10-19T18:46:11.912Z,10.75
2022-10-19T18:48:41.891Z,10.72
2022-10-19T18:51:10.507Z,10.57
2022-10-19T18:53:41.650Z,10.78
2022-10-19T18:56:12.977Z,10.77
2022-10-19T18:58:42.311Z,10.80
2022-10-19T19:01:12.709Z,10.80
2022-10-19T19:03:45.464Z,10.66
2022-10-19T19:06:16.226Z,10.76
2022-10-19T19:08:47.374Z,10.29
2022-10-19T19:11:17.662Z,10.60
2022-10-19T19:13:48.929Z,10.51
2022-10-19T19:16:20.909Z,10.51
2022-10-19T19:18:51.314Z,10.31
2022-10-19T19:21:22.346Z,10.20
2022-10-19T19:23:53.300Z,9.57
2022-10-19T19:26:23.324Z,10.51
2022-10-19T19:28:52.710Z,10.42
2022-10-19T19:31:21.404Z,10.30
2022-10-19T19:33:53.522Z,10.33
2022-10-19T19:36:22.614Z,10.28
2022-10-19T19:38:53.844Z,10.24
2022-10-19T19:41:22.500Z,10.30
2022-10-19T19:43:51.651Z,10.02
2022-10-19T19:46:22.749Z,9.94
2022-10-19T19:49:00.209Z,9.83
2022-10-19T19:51:30.482Z,10.27
2022-10-19T19:53:59.487Z,9.98
2022-10-19T19:56:31.137Z,10.13
2022-10-19T19:59:04.457Z,10.16
2022-10-19T20:01:33.732Z,10.01
2022-10-19T20:04:03.890Z,9.92
2022-10-19T20:06:34.950Z,9.77
2022-10-19T20:09:05.113Z,9.85
2022-10-19T20:11:36.217Z,9.88
2022-10-19T20:14:10.947Z,9.71
2022-10-19T20:16:39.588Z,9.69
2022-10-19T20:19:12.181Z,9.77
2022-10-19T20:21:41.455Z,9.63
2022-10-19T20:24:12.741Z,9.74
2022-10-19T20:26:44.089Z,9.76
2022-10-19T20:29:12.734Z,9.73
2022-10-19T20:31:41.849Z,9.81
2022-10-19T20:34:14.841Z,9.94
2022-10-19T20:36:45.488Z,9.71
2022-10-19T20:39:14.088Z,9.80
2022-10-19T20:41:42.691Z,9.67
2022-10-19T20:44:11.318Z,9.89
2022-10-19T20:46:40.212Z,9.45
2022-10-19T20:49:08.722Z,9.73
2022-10-19T20:51:39.555Z,9.99
2022-10-19T20:54:13.542Z,9.69
2022-10-19T20:56:43.811Z,9.60
2022-10-19T20:59:14.714Z,9.61
2022-10-19T21:01:46.912Z,9.48
2022-10-19T21:04:17.223Z,9.67
2022-10-19T21:06:52.182Z,9.61
2022-10-19T21:09:23.337Z,9.52
2022-10-19T21:11:55.069Z,9.38
2022-10-19T21:14:28.530Z,9.52
2022-10-19T21:16:58.361Z,9.48
2022-10-19T21:19:30.920Z,9.61
2022-10-19T21:22:02.859Z,9.57
2022-10-19T21:24:33.457Z,9.25
2022-10-19T21:27:03.877Z,9.30
2022-10-19T21:29:35.502Z,9.05
2022-10-19T21:32:04.521Z,9.09
2022-10-19T21:34:33.268Z,9.27
2022-10-19T21:37:04.012Z,9.04
2022-10-19T21:39:32.672Z,8.89
2022-10-19T21:42:01.251Z,8.89
2022-10-19T21:44:30.091Z,8.90
2022-10-19T21:47:01.328Z,8.88
2022-10-19T21:49:33.232Z,8.87
2022-10-19T21:52:06.325Z,8.90
2022-10-19T21:54:37.033Z,8.92
2022-10-19T21:57:09.085Z,8.91
2022-10-19T21:59:37.805Z,8.92
2022-10-19T22:02:06.437Z,8.84
2022-10-19T22:04:37.696Z,8.80
2022-10-19T22:07:07.908Z,8.89
2022-10-19T22:09:37.223Z,8.83
2022-10-19T22:12:06.155Z,8.71
2022-10-19T22:14:35.297Z,8.72
2022-10-19T22:17:03.935Z,8.65
2022-10-19T22:19:32.587Z,8.71
2022-10-19T22:22:01.476Z,8.69
2022-10-19T22:24:31.451Z,8.78
2022-10-19T22:27:00.055Z,8.55
2022-10-19T22:29:29.154Z,8.90
2022-10-19T22:31:58.108Z,8.76
2022-10-19T22:34:26.801Z,8.48
2022-10-19T22:36:55.378Z,8.65
2022-10-19T22:39:26.969Z,8.69
2022-10-19T22:42:53.684Z,8.48
2022-10-19T22:45:42.239Z,8.47
2022-10-19T22:48:13.419Z,8.43
2022-10-19T22:50:42.138Z,8.57
2022-10-19T22:53:14.237Z,8.75
2022-10-19T22:55:43.183Z,8.45
2022-10-19T22:58:12.567Z,8.38
2022-10-19T23:00:42.950Z,8.49
2022-10-19T23:03:12.396Z,8.41
2022-10-19T23:05:41.031Z,8.42
2022-10-19T23:08:09.723Z,8.45
2022-10-19T23:10:43.470Z,8.51
2022-10-19T23:13:15.197Z,8.56
2022-10-19T23:15:47.568Z,8.75
2022-10-19T23:18:21.014Z,8.60
2022-10-19T23:20:57.340Z,8.49
2022-10-19T23:23:27.240Z,8.49
2022-10-19T23:26:00.337Z,8.45
2022-10-19T23:28:29.741Z,8.65
2022-10-19T23:31:05.166Z,8.69
2022-10-19T23:33:34.277Z,8.51
2022-10-19T23:36:04.476Z,8.77
2022-10-19T23:38:36.260Z,8.78
2022-10-19T23:41:05.242Z,8.90
2022-10-19T23:43:34.110Z,8.77
2022-10-19T23:46:06.878Z,9.10
2022-10-19T23:48:36.494Z,9.12
2022-10-19T23:51:08.516Z,9.29
2022-10-19T23:53:41.072Z,9.10
2022-10-19T23:56:11.964Z,9.12
2022-10-19T23:58:40.693Z,9.25
